sensor_id;sensor_type;location;lat;lon;timestamp;P1;durP1;ratioP1;P2;durP2;ratioP2
10863;SDS011;5485;37.558;126.950;2023-09-12T00:01:11;11.05;;;9.95;;
10863;SDS011;5485;37.558;126.950;2023-09-12T00:03:37;9.77;;;8.98;;
10863;SDS011;5485;37.558;126.950;2023-09-12T00:06:04;11.55;;;10.23;;
10863;SDS011;5485;37.558;126.950;2023-09-12T00:08:34;15.25;;;9.93;;
10863;SDS011;5485;37.558;126.950;2023-09-12T00:11:05;10.00;;;9.00;;
10863;SDS011;5485;37.558;126.950;2023-09-12T00:13:36;10.40;;;9.20;;
10863;SDS011;5485;37.558;126.950;2023-09-12T00:16:05;10.35;;;9.15;;
10863;SDS011;5485;37.558;126.950;2023-09-12T00:18:35;10.55;;;8.93;;
10863;SDS011;5485;37.558;126.950;2023-09-12T00:21:02;11.90;;;8.82;;
10863;SDS011;5485;37.558;126.950;2023-09-12T00:23:29;13.27;;;9.18;;
10863;SDS011;5485;37.558;126.950;2023-09-12T00:25:56;9.68;;;8.88;;
10863;SDS011;5485;37.558;126.950;2023-09-12T00:28:23;11.40;;;9.77;;
10863;SDS011;5485;37.558;126.950;2023-09-12T00:30:51;9.25;;;8.27;;
10863;SDS011;5485;37.558;126.950;2023-09-12T00:33:18;12.10;;;8.65;;
10863;SDS011;5485;37.558;126.950;2023-09-12T00:35:45;10.90;;;9.23;;
10863;SDS011;5485;37.558;126.950;2023-09-12T00:38:11;9.73;;;8.70;;
10863;SDS011;5485;37.558;126.950;2023-09-12T00:40:38;10.82;;;8.38;;
10863;SDS011;5485;37.558;126.950;2023-09-12T00:43:05;12.02;;;8.98;;
10863;SDS011;5485;37.558;126.950;2023-09-12T00:45:35;18.65;;;9.90;;
10863;SDS011;5485;37.558;126.950;2023-09-12T00:48:04;13.35;;;9.10;;
10863;SDS011;5485;37.558;126.950;2023-09-12T00:50:31;15.32;;;10.15;;
10863;SDS011;5485;37.558;126.950;2023-09-12T00:52:59;12.63;;;8.98;;
10863;SDS011;5485;37.558;126.950;2023-09-12T00:55:29;13.65;;;9.00;;
10863;SDS011;5485;37.558;126.950;2023-09-12T00:57:58;13.95;;;10.10;;
10863;SDS011;5485;37.558;126.950;2023-09-12T01:00:26;14.18;;;11.05;;
10863;SDS011;5485;37.558;126.950;2023-09-12T01:02:53;14.32;;;11.65;;
10863;SDS011;5485;37.558;126.950;2023-09-12T01:05:21;11.18;;;10.13;;
10863;SDS011;5485;37.558;126.950;2023-09-12T01:07:48;12.77;;;11.65;;
10863;SDS011;5485;37.558;126.950;2023-09-12T01:10:15;12.98;;;11.73;;
10863;SDS011;5485;37.558;126.950;2023-09-12T01:12:43;11.80;;;10.60;;
10863;SDS011;5485;37.558;126.950;2023-09-12T01:15:10;12.38;;;11.18;;
10863;SDS011;5485;37.558;126.950;2023-09-12T01:17:40;13.07;;;11.52;;
10863;SDS011;5485;37.558;126.950;2023-09-12T01:20:17;13.95;;;12.65;;
10863;SDS011;5485;37.558;126.950;2023-09-12T01:22:56;11.50;;;10.40;;
10863;SDS011;5485;37.558;126.950;2023-09-12T01:28:35;10.38;;;9.45;;
10863;SDS011;5485;37.558;126.950;2023-09-12T01:31:08;11.45;;;10.20;;
10863;SDS011;5485;37.558;126.950;2023-09-12T01:33:35;12.13;;;10.80;;
10863;SDS011;5485;37.558;126.950;2023-09-12T01:36:02;12.07;;;10.98;;
10863;SDS011;5485;37.558;126.950;2023-09-12T01:38:29;12.35;;;11.00;;
10863;SDS011;5485;37.558;126.950;2023-09-12T01:40:56;13.48;;;11.90;;
10863;SDS011;5485;37.558;126.950;2023-09-12T01:43:24;10.65;;;9.55;;
10863;SDS011;5485;37.558;126.950;2023-09-12T01:45:56;14.13;;;11.68;;
10863;SDS011;5485;37.558;126.950;2023-09-12T01:48:26;12.52;;;11.05;;
10863;SDS011;5485;37.558;126.950;2023-09-12T01:50:59;11.90;;;10.70;;
10863;SDS011;5485;37.558;126.950;2023-09-12T01:53:27;13.95;;;10.52;;
10863;SDS011;5485;37.558;126.950;2023-09-12T01:55:57;13.70;;;11.80;;
10863;SDS011;5485;37.558;126.950;2023-09-12T01:58:26;12.48;;;11.38;;
10863;SDS011;5485;37.558;126.950;2023-09-12T02:00:53;15.10;;;11.60;;
10863;SDS011;5485;37.558;126.950;2023-09-12T02:03:20;12.88;;;11.07;;
10863;SDS011;5485;37.558;126.950;2023-09-12T02:05:51;11.60;;;10.40;;
10863;SDS011;5485;37.558;126.950;2023-09-12T02:08:18;13.27;;;11.75;;
10863;SDS011;5485;37.558;126.950;2023-09-12T02:10:46;11.90;;;10.90;;
10863;SDS011;5485;37.558;126.950;2023-09-12T02:13:13;13.65;;;12.35;;
10863;SDS011;5485;37.558;126.950;2023-09-12T02:15:42;12.43;;;11.35;;
10863;SDS011;5485;37.558;126.950;2023-09-12T02:18:09;13.63;;;11.45;;
10863;SDS011;5485;37.558;126.950;2023-09-12T02:20:40;13.20;;;11.88;;
10863;SDS011;5485;37.558;126.950;2023-09-12T02:23:11;12.60;;;10.40;;
10863;SDS011;5485;37.558;126.950;2023-09-12T02:25:38;17.13;;;13.00;;
10863;SDS011;5485;37.558;126.950;2023-09-12T02:28:04;13.20;;;11.80;;
10863;SDS011;5485;37.558;126.950;2023-09-12T02:30:31;14.10;;;12.80;;
10863;SDS011;5485;37.558;126.950;2023-09-12T02:32:58;13.52;;;11.50;;
10863;SDS011;5485;37.558;126.950;2023-09-12T02:35:27;15.85;;;11.63;;
10863;SDS011;5485;37.558;126.950;2023-09-12T02:37:54;14.25;;;11.30;;
10863;SDS011;5485;37.558;126.950;2023-09-12T02:40:21;11.40;;;10.07;;
10863;SDS011;5485;37.558;126.950;2023-09-12T02:42:50;12.40;;;10.55;;
10863;SDS011;5485;37.558;126.950;2023-09-12T02:45:17;13.25;;;9.07;;
10863;SDS011;5485;37.558;126.950;2023-09-12T02:47:44;10.57;;;9.57;;
10863;SDS011;5485;37.558;126.950;2023-09-12T02:50:11;11.30;;;10.07;;
10863;SDS011;5485;37.558;126.950;2023-09-12T02:52:39;11.93;;;10.48;;
10863;SDS011;5485;37.558;126.950;2023-09-12T02:55:06;10.70;;;9.70;;
10863;SDS011;5485;37.558;126.950;2023-09-12T02:57:33;11.63;;;10.40;;
10863;SDS011;5485;37.558;126.950;2023-09-12T03:00:00;12.88;;;11.02;;
10863;SDS011;5485;37.558;126.950;2023-09-12T03:02:32;11.30;;;10.20;;
10863;SDS011;5485;37.558;126.950;2023-09-12T03:04:59;13.82;;;9.98;;
10863;SDS011;5485;37.558;126.950;2023-09-12T03:07:29;13.57;;;9.70;;
10863;SDS011;5485;37.558;126.950;2023-09-12T03:09:56;12.95;;;9.93;;
10863;SDS011;5485;37.558;126.950;2023-09-12T03:12:23;13.35;;;9.57;;
10863;SDS011;5485;37.558;126.950;2023-09-12T03:14:49;14.73;;;10.10;;
10863;SDS011;5485;37.558;126.950;2023-09-12T03:17:16;10.05;;;8.98;;
10863;SDS011;5485;37.558;126.950;2023-09-12T03:19:43;10.63;;;8.40;;
10863;SDS011;5485;37.558;126.950;2023-09-12T03:22:10;9.90;;;8.90;;
10863;SDS011;5485;37.558;126.950;2023-09-12T03:24:37;11.40;;;10.23;;
10863;SDS011;5485;37.558;126.950;2023-09-12T03:27:06;14.88;;;10.57;;
10863;SDS011;5485;37.558;126.950;2023-09-12T03:29:33;15.23;;;9.55;;
10863;SDS011;5485;37.558;126.950;2023-09-12T03:32:00;10.40;;;9.50;;
10863;SDS011;5485;37.558;126.950;2023-09-12T03:34:32;12.95;;;9.93;;
10863;SDS011;5485;37.558;126.950;2023-09-12T03:36:59;11.43;;;10.00;;
10863;SDS011;5485;37.558;126.950;2023-09-12T03:39:29;11.15;;;9.27;;
10863;SDS011;5485;37.558;126.950;2023-09-12T03:41:55;10.65;;;9.50;;
10863;SDS011;5485;37.558;126.950;2023-09-12T03:44:26;15.65;;;10.20;;
10863;SDS011;5485;37.558;126.950;2023-09-12T03:46:53;11.63;;;9.90;;
10863;SDS011;5485;37.558;126.950;2023-09-12T03:49:20;13.77;;;9.52;;
10863;SDS011;5485;37.558;126.950;2023-09-12T03:51:48;11.60;;;10.10;;
10863;SDS011;5485;37.558;126.950;2023-09-12T03:54:14;13.48;;;10.60;;
10863;SDS011;5485;37.558;126.950;2023-09-12T03:56:41;12.57;;;10.50;;
10863;SDS011;5485;37.558;126.950;2023-09-12T03:59:08;10.60;;;9.32;;
10863;SDS011;5485;37.558;126.950;2023-09-12T04:01:35;14.40;;;10.10;;
10863;SDS011;5485;37.558;126.950;2023-09-12T04:04:03;10.77;;;9.68;;
10863;SDS011;5485;37.558;126.950;2023-09-12T04:06:30;16.33;;;12.27;;
10863;SDS011;5485;37.558;126.950;2023-09-12T04:08:57;15.50;;;13.85;;
10863;SDS011;5485;37.558;126.950;2023-09-12T04:11:23;14.50;;;13.00;;
10863;SDS011;5485;37.558;126.950;2023-09-12T04:13:50;14.43;;;11.23;;
10863;SDS011;5485;37.558;126.950;2023-09-12T04:16:17;14.68;;;11.65;;
10863;SDS011;5485;37.558;126.950;2023-09-12T04:18:48;13.15;;;10.18;;
10863;SDS011;5485;37.558;126.950;2023-09-12T04:21:15;16.40;;;10.48;;
10863;SDS011;5485;37.558;126.950;2023-09-12T04:23:42;16.33;;;9.82;;
10863;SDS011;5485;37.558;126.950;2023-09-12T04:26:09;13.75;;;10.27;;
10863;SDS011;5485;37.558;126.950;2023-09-12T04:28:35;10.88;;;9.70;;
10863;SDS011;5485;37.558;126.950;2023-09-12T04:31:03;12.35;;;10.43;;
10863;SDS011;5485;37.558;126.950;2023-09-12T04:33:30;14.00;;;11.25;;
10863;SDS011;5485;37.558;126.950;2023-09-12T04:36:02;12.38;;;11.07;;
10863;SDS011;5485;37.558;126.950;2023-09-12T04:38:29;13.05;;;10.98;;
10863;SDS011;5485;37.558;126.950;2023-09-12T04:41:00;15.55;;;11.30;;
10863;SDS011;5485;37.558;126.950;2023-09-12T04:43:28;13.05;;;10.90;;
10863;SDS011;5485;37.558;126.950;2023-09-12T04:45:55;11.80;;;10.60;;
10863;SDS011;5485;37.558;126.950;2023-09-12T04:48:22;13.15;;;10.63;;
10863;SDS011;5485;37.558;126.950;2023-09-12T04:50:49;17.33;;;10.50;;
10863;SDS011;5485;37.558;126.950;2023-09-12T04:53:16;12.40;;;10.50;;
10863;SDS011;5485;37.558;126.950;2023-09-12T04:55:43;11.98;;;10.60;;
10863;SDS011;5485;37.558;126.950;2023-09-12T04:58:10;13.32;;;10.77;;
10863;SDS011;5485;37.558;126.950;2023-09-12T05:00:38;13.43;;;10.82;;
10863;SDS011;5485;37.558;126.950;2023-09-12T05:03:06;13.30;;;10.98;;
10863;SDS011;5485;37.558;126.950;2023-09-12T05:05:34;13.50;;;10.85;;
10863;SDS011;5485;37.558;126.950;2023-09-12T05:08:02;13.18;;;10.77;;
10863;SDS011;5485;37.558;126.950;2023-09-12T05:10:29;13.32;;;10.32;;
10863;SDS011;5485;37.558;126.950;2023-09-12T05:12:56;12.80;;;10.25;;
10863;SDS011;5485;37.558;126.950;2023-09-12T05:15:23;15.48;;;10.30;;
10863;SDS011;5485;37.558;126.950;2023-09-12T05:17:50;11.43;;;10.13;;
10863;SDS011;5485;37.558;126.950;2023-09-12T05:20:17;12.05;;;10.88;;
10863;SDS011;5485;37.558;126.950;2023-09-12T05:22:44;13.57;;;9.88;;
10863;SDS011;5485;37.558;126.950;2023-09-12T05:25:11;13.82;;;10.20;;
10863;SDS011;5485;37.558;126.950;2023-09-12T05:27:38;12.75;;;9.65;;
10863;SDS011;5485;37.558;126.950;2023-09-12T05:30:05;10.73;;;9.73;;
10863;SDS011;5485;37.558;126.950;2023-09-12T05:32:32;11.52;;;9.93;;
10863;SDS011;5485;37.558;126.950;2023-09-12T05:34:59;11.30;;;9.45;;
10863;SDS011;5485;37.558;126.950;2023-09-12T05:37:26;10.05;;;9.02;;
10863;SDS011;5485;37.558;126.950;2023-09-12T05:39:53;13.10;;;9.40;;
10863;SDS011;5485;37.558;126.950;2023-09-12T05:42:20;10.50;;;8.88;;
10863;SDS011;5485;37.558;126.950;2023-09-12T05:44:48;12.32;;;9.38;;
10863;SDS011;5485;37.558;126.950;2023-09-12T05:47:17;11.95;;;9.60;;
10863;SDS011;5485;37.558;126.950;2023-09-12T05:49:44;12.85;;;9.93;;
10863;SDS011;5485;37.558;126.950;2023-09-12T05:52:11;10.27;;;9.23;;
10863;SDS011;5485;37.558;126.950;2023-09-12T05:54:38;12.43;;;9.15;;
10863;SDS011;5485;37.558;126.950;2023-09-12T05:57:09;12.63;;;8.98;;
10863;SDS011;5485;37.558;126.950;2023-09-12T05:59:37;10.95;;;8.27;;
10863;SDS011;5485;37.558;126.950;2023-09-12T06:02:05;9.50;;;8.60;;
10863;SDS011;5485;37.558;126.950;2023-09-12T06:04:35;11.30;;;9.13;;
10863;SDS011;5485;37.558;126.950;2023-09-12T06:07:02;12.35;;;9.43;;
10863;SDS011;5485;37.558;126.950;2023-09-12T06:09:29;10.25;;;8.25;;
10863;SDS011;5485;37.558;126.950;2023-09-12T06:11:56;13.90;;;8.65;;
10863;SDS011;5485;37.558;126.950;2023-09-12T06:14:23;16.33;;;9.20;;
10863;SDS011;5485;37.558;126.950;2023-09-12T06:16:50;13.63;;;9.27;;
10863;SDS011;5485;37.558;126.950;2023-09-12T06:19:17;9.23;;;8.25;;
10863;SDS011;5485;37.558;126.950;2023-09-12T06:21:47;13.02;;;9.45;;
10863;SDS011;5485;37.558;126.950;2023-09-12T06:24:19;12.82;;;8.82;;
10863;SDS011;5485;37.558;126.950;2023-09-12T06:26:49;11.13;;;8.23;;
10863;SDS011;5485;37.558;126.950;2023-09-12T06:29:16;10.27;;;7.90;;
10863;SDS011;5485;37.558;126.950;2023-09-12T06:31:43;12.70;;;8.60;;
10863;SDS011;5485;37.558;126.950;2023-09-12T06:34:14;9.13;;;8.25;;
10863;SDS011;5485;37.558;126.950;2023-09-12T06:36:40;9.50;;;8.60;;
10863;SDS011;5485;37.558;126.950;2023-09-12T06:39:13;8.93;;;8.00;;
10863;SDS011;5485;37.558;126.950;2023-09-12T06:41:43;12.10;;;8.30;;
10863;SDS011;5485;37.558;126.950;2023-09-12T06:44:10;8.90;;;8.02;;
10863;SDS011;5485;37.558;126.950;2023-09-12T06:46:37;8.65;;;7.85;;
10863;SDS011;5485;37.558;126.950;2023-09-12T06:49:04;11.20;;;8.15;;
10863;SDS011;5485;37.558;126.950;2023-09-12T06:51:30;9.77;;;8.77;;
10863;SDS011;5485;37.558;126.950;2023-09-12T06:53:57;10.75;;;8.05;;
10863;SDS011;5485;37.558;126.950;2023-09-12T06:56:25;10.23;;;8.60;;
10863;SDS011;5485;37.558;126.950;2023-09-12T06:58:52;8.88;;;8.07;;
10863;SDS011;5485;37.558;126.950;2023-09-12T07:01:21;9.20;;;8.00;;
10863;SDS011;5485;37.558;126.950;2023-09-12T07:03:48;11.35;;;8.18;;
10863;SDS011;5485;37.558;126.950;2023-09-12T07:06:19;9.07;;;8.15;;
10863;SDS011;5485;37.558;126.950;2023-09-12T07:08:46;8.95;;;8.15;;
10863;SDS011;5485;37.558;126.950;2023-09-12T07:11:13;11.95;;;7.78;;
10863;SDS011;5485;37.558;126.950;2023-09-12T07:13:40;12.25;;;8.20;;
10863;SDS011;5485;37.558;126.950;2023-09-12T07:16:06;9.65;;;7.88;;
10863;SDS011;5485;37.558;126.950;2023-09-12T07:18:33;11.88;;;8.15;;
10863;SDS011;5485;37.558;126.950;2023-09-12T07:21:02;12.20;;;8.05;;
10863;SDS011;5485;37.558;126.950;2023-09-12T07:23:30;10.63;;;7.82;;
10863;SDS011;5485;37.558;126.950;2023-09-12T07:25:57;8.77;;;7.88;;
10863;SDS011;5485;37.558;126.950;2023-09-12T07:28:25;11.30;;;7.97;;
10863;SDS011;5485;37.558;126.950;2023-09-12T07:30:53;8.93;;;7.55;;
10863;SDS011;5485;37.558;126.950;2023-09-12T07:33:20;8.75;;;7.88;;
10863;SDS011;5485;37.558;126.950;2023-09-12T07:35:48;8.93;;;7.97;;
10863;SDS011;5485;37.558;126.950;2023-09-12T07:38:18;9.52;;;8.27;;
10863;SDS011;5485;37.558;126.950;2023-09-12T07:40:46;9.88;;;8.70;;
10863;SDS011;5485;37.558;126.950;2023-09-12T07:43:13;9.32;;;7.47;;
10863;SDS011;5485;37.558;126.950;2023-09-12T07:45:41;10.05;;;7.90;;
10863;SDS011;5485;37.558;126.950;2023-09-12T07:48:10;9.00;;;8.10;;
10863;SDS011;5485;37.558;126.950;2023-09-12T07:50:37;10.90;;;8.07;;
10863;SDS011;5485;37.558;126.950;2023-09-12T07:53:07;8.57;;;7.63;;
10863;SDS011;5485;37.558;126.950;2023-09-12T07:55:37;8.75;;;7.88;;
10863;SDS011;5485;37.558;126.950;2023-09-12T07:58:14;8.20;;;7.40;;
10863;SDS011;5485;37.558;126.950;2023-09-12T08:00:43;8.82;;;7.93;;
10863;SDS011;5485;37.558;126.950;2023-09-12T08:03:10;8.38;;;7.68;;
10863;SDS011;5485;37.558;126.950;2023-09-12T08:05:37;10.68;;;7.60;;
10863;SDS011;5485;37.558;126.950;2023-09-12T08:08:04;9.68;;;7.88;;
10863;SDS011;5485;37.558;126.950;2023-09-12T08:10:34;12.18;;;7.93;;
10863;SDS011;5485;37.558;126.950;2023-09-12T08:13:00;10.43;;;8.32;;
10863;SDS011;5485;37.558;126.950;2023-09-12T08:15:27;8.85;;;7.95;;
10863;SDS011;5485;37.558;126.950;2023-09-12T08:17:54;12.48;;;8.18;;
10863;SDS011;5485;37.558;126.950;2023-09-12T08:20:21;9.55;;;7.60;;
10863;SDS011;5485;37.558;126.950;2023-09-12T08:22:48;8.27;;;7.57;;
10863;SDS011;5485;37.558;126.950;2023-09-12T08:25:15;8.15;;;7.45;;
10863;SDS011;5485;37.558;126.950;2023-09-12T08:27:42;8.23;;;7.53;;
10863;SDS011;5485;37.558;126.950;2023-09-12T08:30:10;8.98;;;8.10;;
10863;SDS011;5485;37.558;126.950;2023-09-12T08:32:39;9.55;;;7.97;;
10863;SDS011;5485;37.558;126.950;2023-09-12T08:35:12;8.63;;;7.82;;
10863;SDS011;5485;37.558;126.950;2023-09-12T08:37:40;8.60;;;7.75;;
10863;SDS011;5485;37.558;126.950;2023-09-12T08:40:08;8.68;;;7.88;;
10863;SDS011;5485;37.558;126.950;2023-09-12T08:45:11;10.40;;;8.48;;
10863;SDS011;5485;37.558;126.950;2023-09-12T08:47:43;10.88;;;8.25;;
10863;SDS011;5485;37.558;126.950;2023-09-12T08:50:12;9.10;;;8.18;;
10863;SDS011;5485;37.558;126.950;2023-09-12T08:52:42;9.90;;;8.95;;
10863;SDS011;5485;37.558;126.950;2023-09-12T08:55:10;11.00;;;9.05;;
10863;SDS011;5485;37.558;126.950;2023-09-12T08:57:41;10.68;;;8.45;;
10863;SDS011;5485;37.558;126.950;2023-09-12T09:00:09;9.73;;;8.75;;
10863;SDS011;5485;37.558;126.950;2023-09-12T09:02:40;11.48;;;9.25;;
10863;SDS011;5485;37.558;126.950;2023-09-12T09:05:08;12.02;;;8.15;;
10863;SDS011;5485;37.558;126.950;2023-09-12T09:07:37;13.63;;;9.32;;
10863;SDS011;5485;37.558;126.950;2023-09-12T09:10:06;12.75;;;9.40;;
10863;SDS011;5485;37.558;126.950;2023-09-12T09:12:35;10.55;;;9.45;;
10863;SDS011;5485;37.558;126.950;2023-09-12T09:17:57;11.00;;;9.38;;
10863;SDS011;5485;37.558;126.950;2023-09-12T09:20:30;11.75;;;9.40;;
10863;SDS011;5485;37.558;126.950;2023-09-12T09:25:33;10.30;;;9.20;;
10863;SDS011;5485;37.558;126.950;2023-09-12T09:28:18;14.48;;;10.77;;
10863;SDS011;5485;37.558;126.950;2023-09-12T09:30:50;11.35;;;10.13;;
10863;SDS011;5485;37.558;126.950;2023-09-12T09:33:21;11.38;;;10.20;;
10863;SDS011;5485;37.558;126.950;2023-09-12T09:35:49;11.05;;;9.98;;
10863;SDS011;5485;37.558;126.950;2023-09-12T09:38:20;11.23;;;10.13;;
10863;SDS011;5485;37.558;126.950;2023-09-12T09:40:49;11.95;;;10.75;;
10863;SDS011;5485;37.558;126.950;2023-09-12T09:43:19;10.63;;;9.63;;
10863;SDS011;5485;37.558;126.950;2023-09-12T09:45:47;11.82;;;10.60;;
10863;SDS011;5485;37.558;126.950;2023-09-12T09:48:18;11.40;;;10.30;;
10863;SDS011;5485;37.558;126.950;2023-09-12T09:50:46;12.07;;;10.73;;
10863;SDS011;5485;37.558;126.950;2023-09-12T09:53:13;11.30;;;10.15;;
10863;SDS011;5485;37.558;126.950;2023-09-12T09:55:40;17.52;;;10.88;;
10863;SDS011;5485;37.558;126.950;2023-09-12T09:58:14;11.68;;;10.40;;
10863;SDS011;5485;37.558;126.950;2023-09-12T10:00:45;11.77;;;10.45;;
10863;SDS011;5485;37.558;126.950;2023-09-12T10:03:17;13.75;;;10.32;;
10863;SDS011;5485;37.558;126.950;2023-09-12T10:05:51;11.45;;;10.30;;
10863;SDS011;5485;37.558;126.950;2023-09-12T10:08:21;12.52;;;10.15;;
10863;SDS011;5485;37.558;126.950;2023-09-12T10:10:50;11.98;;;10.43;;
10863;SDS011;5485;37.558;126.950;2023-09-12T10:13:18;13.00;;;10.48;;
10863;SDS011;5485;37.558;126.950;2023-09-12T10:15:47;13.52;;;10.40;;
10863;SDS011;5485;37.558;126.950;2023-09-12T10:18:18;12.02;;;10.82;;
10863;SDS011;5485;37.558;126.950;2023-09-12T10:20:54;12.50;;;11.13;;
10863;SDS011;5485;37.558;126.950;2023-09-12T10:23:43;14.55;;;11.25;;
10863;SDS011;5485;37.558;126.950;2023-09-12T10:26:16;12.10;;;10.90;;
10863;SDS011;5485;37.558;126.950;2023-09-12T10:28:46;12.30;;;11.10;;
10863;SDS011;5485;37.558;126.950;2023-09-12T10:31:13;12.27;;;10.95;;
10863;SDS011;5485;37.558;126.950;2023-09-12T10:33:41;15.35;;;11.40;;
10863;SDS011;5485;37.558;126.950;2023-09-12T10:36:12;12.30;;;10.38;;
10863;SDS011;5485;37.558;126.950;2023-09-12T10:38:43;12.35;;;10.98;;
10863;SDS011;5485;37.558;126.950;2023-09-12T10:41:13;12.60;;;11.30;;
10863;SDS011;5485;37.558;126.950;2023-09-12T10:43:41;12.27;;;11.07;;
10863;SDS011;5485;37.558;126.950;2023-09-12T10:46:12;13.02;;;11.27;;
10863;SDS011;5485;37.558;126.950;2023-09-12T10:48:39;14.00;;;11.43;;
10863;SDS011;5485;37.558;126.950;2023-09-12T10:51:06;12.43;;;11.18;;
10863;SDS011;5485;37.558;126.950;2023-09-12T10:53:35;14.23;;;12.00;;
10863;SDS011;5485;37.558;126.950;2023-09-12T10:56:20;12.68;;;11.35;;
10863;SDS011;5485;37.558;126.950;2023-09-12T10:59:30;13.70;;;11.07;;
10863;SDS011;5485;37.558;126.950;2023-09-12T11:01:39;13.48;;;12.10;;
10863;SDS011;5485;37.558;126.950;2023-09-12T11:06:58;14.75;;;12.32;;
10863;SDS011;5485;37.558;126.950;2023-09-12T11:09:26;13.70;;;12.20;;
10863;SDS011;5485;37.558;126.950;2023-09-12T11:14:24;15.45;;;12.65;;
10863;SDS011;5485;37.558;126.950;2023-09-12T11:19:46;12.35;;;11.13;;
10863;SDS011;5485;37.558;126.950;2023-09-12T11:22:24;14.75;;;12.13;;
10863;SDS011;5485;37.558;126.950;2023-09-12T11:24:54;13.35;;;12.18;;
10863;SDS011;5485;37.558;126.950;2023-09-12T11:27:25;13.77;;;12.13;;
10863;SDS011;5485;37.558;126.950;2023-09-12T11:30:03;14.52;;;13.02;;
10863;SDS011;5485;37.558;126.950;2023-09-12T11:32:35;14.63;;;12.75;;
10863;SDS011;5485;37.558;126.950;2023-09-12T11:35:07;14.48;;;12.85;;
10863;SDS011;5485;37.558;126.950;2023-09-12T11:37:34;15.38;;;11.70;;
10863;SDS011;5485;37.558;126.950;2023-09-12T11:42:40;13.25;;;11.73;;
10863;SDS011;5485;37.558;126.950;2023-09-12T11:45:08;14.45;;;12.40;;
10863;SDS011;5485;37.558;126.950;2023-09-12T11:47:42;13.45;;;12.25;;
10863;SDS011;5485;37.558;126.950;2023-09-12T11:50:29;13.85;;;12.55;;
10863;SDS011;5485;37.558;126.950;2023-09-12T11:55:44;13.48;;;12.27;;
10863;SDS011;5485;37.558;126.950;2023-09-12T11:58:13;14.10;;;12.88;;
10863;SDS011;5485;37.558;126.950;2023-09-12T12:00:45;14.52;;;12.75;;
10863;SDS011;5485;37.558;126.950;2023-09-12T12:03:25;14.18;;;12.68;;
10863;SDS011;5485;37.558;126.950;2023-09-12T12:05:55;16.80;;;12.48;;
10863;SDS011;5485;37.558;126.950;2023-09-12T12:08:23;13.75;;;12.32;;
10863;SDS011;5485;37.558;126.950;2023-09-12T12:10:51;14.10;;;12.80;;
10863;SDS011;5485;37.558;126.950;2023-09-12T12:13:20;14.07;;;12.68;;
10863;SDS011;5485;37.558;126.950;2023-09-12T12:15:47;13.65;;;11.90;;
10863;SDS011;5485;37.558;126.950;2023-09-12T12:18:15;13.95;;;12.57;;
10863;SDS011;5485;37.558;126.950;2023-09-12T12:20:42;14.93;;;12.07;;
10863;SDS011;5485;37.558;126.950;2023-09-12T12:23:09;13.63;;;12.23;;
10863;SDS011;5485;37.558;126.950;2023-09-12T12:25:36;13.50;;;12.18;;
10863;SDS011;5485;37.558;126.950;2023-09-12T12:28:03;13.73;;;12.48;;
10863;SDS011;5485;37.558;126.950;2023-09-12T12:30:31;13.82;;;12.50;;
10863;SDS011;5485;37.558;126.950;2023-09-12T12:33:01;15.18;;;12.65;;
10863;SDS011;5485;37.558;126.950;2023-09-12T12:35:32;14.50;;;12.02;;
10863;SDS011;5485;37.558;126.950;2023-09-12T12:37:59;17.33;;;12.75;;
10863;SDS011;5485;37.558;126.950;2023-09-12T12:40:26;15.07;;;12.23;;
10863;SDS011;5485;37.558;126.950;2023-09-12T12:42:53;13.48;;;12.18;;
10863;SDS011;5485;37.558;126.950;2023-09-12T12:45:28;13.38;;;11.88;;
10863;SDS011;5485;37.558;126.950;2023-09-12T12:47:58;13.20;;;11.82;;
10863;SDS011;5485;37.558;126.950;2023-09-12T12:50:35;13.75;;;12.43;;
10863;SDS011;5485;37.558;126.950;2023-09-12T12:53:02;14.48;;;12.48;;
10863;SDS011;5485;37.558;126.950;2023-09-12T12:55:29;14.43;;;13.02;;
10863;SDS011;5485;37.558;126.950;2023-09-12T12:58:00;13.80;;;12.55;;
10863;SDS011;5485;37.558;126.950;2023-09-12T13:00:31;15.10;;;13.23;;
10863;SDS011;5485;37.558;126.950;2023-09-12T13:02:58;14.27;;;12.98;;
10863;SDS011;5485;37.558;126.950;2023-09-12T13:05:29;14.40;;;13.00;;
10863;SDS011;5485;37.558;126.950;2023-09-12T13:07:57;13.52;;;12.23;;
10863;SDS011;5485;37.558;126.950;2023-09-12T13:10:24;14.52;;;13.07;;
10863;SDS011;5485;37.558;126.950;2023-09-12T13:12:51;14.52;;;13.10;;
10863;SDS011;5485;37.558;126.950;2023-09-12T13:15:17;14.43;;;12.93;;
10863;SDS011;5485;37.558;126.950;2023-09-12T13:17:46;14.10;;;12.50;;
10863;SDS011;5485;37.558;126.950;2023-09-12T13:20:14;15.73;;;12.65;;
10863;SDS011;5485;37.558;126.950;2023-09-12T13:22:41;14.65;;;13.00;;
10863;SDS011;5485;37.558;126.950;2023-09-12T13:25:08;14.38;;;12.88;;
10863;SDS011;5485;37.558;126.950;2023-09-12T13:27:35;18.25;;;13.60;;
10863;SDS011;5485;37.558;126.950;2023-09-12T13:30:02;16.15;;;13.15;;
10863;SDS011;5485;37.558;126.950;2023-09-12T13:32:30;14.68;;;13.35;;
10863;SDS011;5485;37.558;126.950;2023-09-12T13:34:58;14.38;;;13.07;;
10863;SDS011;5485;37.558;126.950;2023-09-12T13:37:25;13.70;;;12.13;;
10863;SDS011;5485;37.558;126.950;2023-09-12T13:39:53;14.50;;;12.90;;
10863;SDS011;5485;37.558;126.950;2023-09-12T13:42:20;14.73;;;13.35;;
10863;SDS011;5485;37.558;126.950;2023-09-12T13:44:47;15.55;;;12.38;;
10863;SDS011;5485;37.558;126.950;2023-09-12T13:47:14;14.77;;;13.02;;
10863;SDS011;5485;37.558;126.950;2023-09-12T13:49:47;13.63;;;12.45;;
10863;SDS011;5485;37.558;126.950;2023-09-12T13:52:17;14.65;;;11.55;;
10863;SDS011;5485;37.558;126.950;2023-09-12T13:54:45;14.90;;;12.90;;
10863;SDS011;5485;37.558;126.950;2023-09-12T13:57:12;13.38;;;12.15;;
10863;SDS011;5485;37.558;126.950;2023-09-12T13:59:39;13.82;;;12.52;;
10863;SDS011;5485;37.558;126.950;2023-09-12T14:02:05;13.10;;;11.88;;
10863;SDS011;5485;37.558;126.950;2023-09-12T14:04:33;13.45;;;12.15;;
10863;SDS011;5485;37.558;126.950;2023-09-12T14:07:00;15.05;;;13.68;;
10863;SDS011;5485;37.558;126.950;2023-09-12T14:09:28;15.00;;;13.45;;
10863;SDS011;5485;37.558;126.950;2023-09-12T14:11:55;14.65;;;12.18;;
10863;SDS011;5485;37.558;126.950;2023-09-12T14:14:22;14.80;;;12.43;;
10863;SDS011;5485;37.558;126.950;2023-09-12T14:16:48;14.45;;;12.93;;
10863;SDS011;5485;37.558;126.950;2023-09-12T14:19:15;14.27;;;12.30;;
10863;SDS011;5485;37.558;126.950;2023-09-12T14:21:47;14.52;;;13.07;;
10863;SDS011;5485;37.558;126.950;2023-09-12T14:24:21;14.00;;;12.73;;
10863;SDS011;5485;37.558;126.950;2023-09-12T14:26:48;15.00;;;12.02;;
10863;SDS011;5485;37.558;126.950;2023-09-12T14:29:15;16.00;;;12.88;;
10863;SDS011;5485;37.558;126.950;2023-09-12T14:31:43;13.43;;;12.23;;
10863;SDS011;5485;37.558;126.950;2023-09-12T14:34:18;13.40;;;12.10;;
10863;SDS011;5485;37.558;126.950;2023-09-12T14:36:47;13.68;;;12.45;;
10863;SDS011;5485;37.558;126.950;2023-09-12T14:39:14;15.70;;;12.60;;
10863;SDS011;5485;37.558;126.950;2023-09-12T14:41:41;14.02;;;12.70;;
10863;SDS011;5485;37.558;126.950;2023-09-12T14:44:09;14.50;;;13.20;;
10863;SDS011;5485;37.558;126.950;2023-09-12T14:46:36;15.02;;;13.45;;
10863;SDS011;5485;37.558;126.950;2023-09-12T14:49:03;14.13;;;12.82;;